sensor_id;sensor_type;location;lat;lon;timestamp;P1;durP1;ratioP1;P2;durP2;ratioP2
43337;SDS011;28933;52.492;13.434;2023-04-05T00:01:20;8.05;;;4.25;;
43337;SDS011;28933;52.492;13.434;2023-04-05T00:03:46;9.75;;;3.90;;
43337;SDS011;28933;52.492;13.434;2023-04-05T00:06:12;8.40;;;5.10;;
43337;SDS011;28933;52.492;13.434;2023-04-05T00:08:40;9.38;;;4.82;;
43337;SDS011;28933;52.492;13.434;2023-04-05T00:11:08;9.15;;;4.65;;
43337;SDS011;28933;52.492;13.434;2023-04-05T00:13:34;9.85;;;5.38;;
43337;SDS011;28933;52.492;13.434;2023-04-05T00:15:59;8.70;;;4.90;;
43337;SDS011;28933;52.492;13.434;2023-04-05T00:18:25;12.02;;;5.43;;
43337;SDS011;28933;52.492;13.434;2023-04-05T00:20:51;10.80;;;6.63;;
43337;SDS011;28933;52.492;13.434;2023-04-05T00:23:17;12.20;;;6.60;;
43337;SDS011;28933;52.492;13.434;2023-04-05T00:25:45;14.23;;;7.50;;
43337;SDS011;28933;52.492;13.434;2023-04-05T00:28:11;15.00;;;7.55;;
43337;SDS011;28933;52.492;13.434;2023-04-05T00:30:37;14.80;;;7.03;;
43337;SDS011;28933;52.492;13.434;2023-04-05T00:33:03;11.80;;;6.50;;
43337;SDS011;28933;52.492;13.434;2023-04-05T00:35:29;11.27;;;5.50;;
43337;SDS011;28933;52.492;13.434;2023-04-05T00:37:55;9.10;;;5.20;;
43337;SDS011;28933;52.492;13.434;2023-04-05T00:40:21;8.52;;;4.50;;
43337;SDS011;28933;52.492;13.434;2023-04-05T00:42:47;10.80;;;6.00;;
43337;SDS011;28933;52.492;13.434;2023-04-05T00:45:13;13.02;;;6.43;;
43337;SDS011;28933;52.492;13.434;2023-04-05T00:47:42;10.25;;;5.80;;
43337;SDS011;28933;52.492;13.434;2023-04-05T00:50:08;8.32;;;4.90;;
43337;SDS011;28933;52.492;13.434;2023-04-05T00:52:35;11.45;;;6.93;;
43337;SDS011;28933;52.492;13.434;2023-04-05T00:55:05;11.38;;;6.13;;
43337;SDS011;28933;52.492;13.434;2023-04-05T00:57:35;8.50;;;5.07;;
43337;SDS011;28933;52.492;13.434;2023-04-05T01:00:04;9.60;;;6.15;;
43337;SDS011;28933;52.492;13.434;2023-04-05T01:02:35;7.53;;;4.13;;
43337;SDS011;28933;52.492;13.434;2023-04-05T01:05:27;10.30;;;5.68;;
43337;SDS011;28933;52.492;13.434;2023-04-05T01:07:57;8.52;;;4.68;;
43337;SDS011;28933;52.492;13.434;2023-04-05T01:10:34;9.27;;;4.78;;
43337;SDS011;28933;52.492;13.434;2023-04-05T01:13:03;8.32;;;4.90;;
43337;SDS011;28933;52.492;13.434;2023-04-05T01:15:30;11.77;;;5.07;;
43337;SDS011;28933;52.492;13.434;2023-04-05T01:17:56;10.02;;;4.95;;
43337;SDS011;28933;52.492;13.434;2023-04-05T01:20:25;13.80;;;4.60;;
43337;SDS011;28933;52.492;13.434;2023-04-05T01:23:42;9.23;;;4.53;;
43337;SDS011;28933;52.492;13.434;2023-04-05T01:34:42;8.40;;;5.13;;
43337;SDS011;28933;52.492;13.434;2023-04-05T01:37:12;8.88;;;5.18;;
43337;SDS011;28933;52.492;13.434;2023-04-05T01:39:42;6.75;;;4.43;;
43337;SDS011;28933;52.492;13.434;2023-04-05T01:42:08;8.43;;;4.65;;
43337;SDS011;28933;52.492;13.434;2023-04-05T01:44:34;8.27;;;4.45;;
43337;SDS011;28933;52.492;13.434;2023-04-05T01:47:00;9.80;;;4.43;;
43337;SDS011;28933;52.492;13.434;2023-04-05T01:49:25;8.00;;;3.85;;
43337;SDS011;28933;52.492;13.434;2023-04-05T01:51:51;7.03;;;5.07;;
43337;SDS011;28933;52.492;13.434;2023-04-05T01:54:16;9.15;;;4.90;;
43337;SDS011;28933;52.492;13.434;2023-04-05T01:56:42;9.77;;;4.43;;
43337;SDS011;28933;52.492;13.434;2023-04-05T01:59:08;10.70;;;6.00;;
43337;SDS011;28933;52.492;13.434;2023-04-05T02:01:34;10.10;;;5.07;;
43337;SDS011;28933;52.492;13.434;2023-04-05T02:04:00;9.70;;;4.43;;
43337;SDS011;28933;52.492;13.434;2023-04-05T02:06:25;10.88;;;5.03;;
43337;SDS011;28933;52.492;13.434;2023-04-05T02:08:51;7.13;;;3.83;;
43337;SDS011;28933;52.492;13.434;2023-04-05T02:11:17;8.27;;;5.10;;
43337;SDS011;28933;52.492;13.434;2023-04-05T02:13:46;8.05;;;4.43;;
43337;SDS011;28933;52.492;13.434;2023-04-05T02:16:12;10.45;;;4.75;;
43337;SDS011;28933;52.492;13.434;2023-04-05T02:18:37;11.15;;;4.28;;
43337;SDS011;28933;52.492;13.434;2023-04-05T02:21:04;6.97;;;3.80;;
43337;SDS011;28933;52.492;13.434;2023-04-05T02:23:32;8.95;;;3.80;;
43337;SDS011;28933;52.492;13.434;2023-04-05T02:25:59;7.30;;;3.33;;
43337;SDS011;28933;52.492;13.434;2023-04-05T02:28:27;6.85;;;3.90;;
43337;SDS011;28933;52.492;13.434;2023-04-05T02:30:53;9.73;;;4.22;;
43337;SDS011;28933;52.492;13.434;2023-04-05T02:33:19;5.97;;;3.40;;
43337;SDS011;28933;52.492;13.434;2023-04-05T02:35:47;7.13;;;3.70;;
43337;SDS011;28933;52.492;13.434;2023-04-05T02:38:13;9.40;;;3.17;;
43337;SDS011;28933;52.492;13.434;2023-04-05T02:40:39;5.57;;;2.85;;
43337;SDS011;28933;52.492;13.434;2023-04-05T02:43:05;6.30;;;3.30;;
43337;SDS011;28933;52.492;13.434;2023-04-05T02:45:31;5.60;;;3.15;;
43337;SDS011;28933;52.492;13.434;2023-04-05T02:47:57;6.22;;;3.85;;
43337;SDS011;28933;52.492;13.434;2023-04-05T02:50:22;5.30;;;3.10;;
43337;SDS011;28933;52.492;13.434;2023-04-05T02:52:48;6.70;;;3.00;;
43337;SDS011;28933;52.492;13.434;2023-04-05T02:55:14;5.18;;;2.75;;
43337;SDS011;28933;52.492;13.434;2023-04-05T02:57:42;7.65;;;3.33;;
43337;SDS011;28933;52.492;13.434;2023-04-05T03:00:08;5.28;;;3.20;;
43337;SDS011;28933;52.492;13.434;2023-04-05T03:02:35;5.55;;;3.10;;
43337;SDS011;28933;52.492;13.434;2023-04-05T03:05:02;7.03;;;4.00;;
43337;SDS011;28933;52.492;13.434;2023-04-05T03:07:28;8.18;;;3.65;;
43337;SDS011;28933;52.492;13.434;2023-04-05T03:09:54;5.00;;;3.03;;
43337;SDS011;28933;52.492;13.434;2023-04-05T03:12:20;6.07;;;3.70;;
43337;SDS011;28933;52.492;13.434;2023-04-05T03:14:46;5.50;;;3.30;;
43337;SDS011;28933;52.492;13.434;2023-04-05T03:17:12;6.35;;;3.17;;
43337;SDS011;28933;52.492;13.434;2023-04-05T03:19:38;4.63;;;2.65;;
43337;SDS011;28933;52.492;13.434;2023-04-05T03:22:04;5.60;;;3.30;;
43337;SDS011;28933;52.492;13.434;2023-04-05T03:24:30;6.55;;;3.22;;
43337;SDS011;28933;52.492;13.434;2023-04-05T03:26:55;7.07;;;3.47;;
43337;SDS011;28933;52.492;13.434;2023-04-05T03:29:26;5.65;;;2.83;;
43337;SDS011;28933;52.492;13.434;2023-04-05T03:31:52;9.25;;;3.92;;
43337;SDS011;28933;52.492;13.434;2023-04-05T03:34:17;5.10;;;3.25;;
43337;SDS011;28933;52.492;13.434;2023-04-05T03:36:43;5.70;;;3.08;;
43337;SDS011;28933;52.492;13.434;2023-04-05T03:39:10;7.10;;;4.55;;
43337;SDS011;28933;52.492;13.434;2023-04-05T03:41:37;5.75;;;3.53;;
43337;SDS011;28933;52.492;13.434;2023-04-05T03:44:03;5.07;;;3.30;;
43337;SDS011;28933;52.492;13.434;2023-04-05T03:46:30;5.00;;;3.22;;
43337;SDS011;28933;52.492;13.434;2023-04-05T03:48:55;4.97;;;3.13;;
43337;SDS011;28933;52.492;13.434;2023-04-05T03:51:22;7.25;;;3.25;;
43337;SDS011;28933;52.492;13.434;2023-04-05T03:53:48;5.47;;;3.47;;
43337;SDS011;28933;52.492;13.434;2023-04-05T03:56:14;6.97;;;3.67;;
43337;SDS011;28933;52.492;13.434;2023-04-05T03:58:40;7.63;;;3.67;;
43337;SDS011;28933;52.492;13.434;2023-04-05T04:01:06;7.60;;;3.10;;
43337;SDS011;28933;52.492;13.434;2023-04-05T04:03:32;6.97;;;3.40;;
43337;SDS011;28933;52.492;13.434;2023-04-05T04:05:57;7.10;;;3.35;;
43337;SDS011;28933;52.492;13.434;2023-04-05T04:08:23;8.30;;;4.03;;
43337;SDS011;28933;52.492;13.434;2023-04-05T04:10:50;6.63;;;3.33;;
43337;SDS011;28933;52.492;13.434;2023-04-05T04:13:16;5.95;;;3.63;;
43337;SDS011;28933;52.492;13.434;2023-04-05T04:15:43;5.97;;;3.05;;
43337;SDS011;28933;52.492;13.434;2023-04-05T04:18:09;6.90;;;3.28;;
43337;SDS011;28933;52.492;13.434;2023-04-05T04:20:36;5.35;;;3.03;;
43337;SDS011;28933;52.492;13.434;2023-04-05T04:23:04;6.43;;;3.55;;
43337;SDS011;28933;52.492;13.434;2023-04-05T04:25:34;7.50;;;3.20;;
43337;SDS011;28933;52.492;13.434;2023-04-05T04:28:03;7.13;;;3.22;;
43337;SDS011;28933;52.492;13.434;2023-04-05T04:30:31;7.75;;;3.90;;
43337;SDS011;28933;52.492;13.434;2023-04-05T04:32:59;6.82;;;3.92;;
43337;SDS011;28933;52.492;13.434;2023-04-05T04:35:28;8.20;;;3.90;;
43337;SDS011;28933;52.492;13.434;2023-04-05T04:37:55;8.40;;;3.38;;
43337;SDS011;28933;52.492;13.434;2023-04-05T04:40:32;6.80;;;4.05;;
43337;SDS011;28933;52.492;13.434;2023-04-05T04:43:12;8.30;;;3.65;;
43337;SDS011;28933;52.492;13.434;2023-04-05T04:45:41;11.30;;;3.97;;
43337;SDS011;28933;52.492;13.434;2023-04-05T04:48:10;5.07;;;3.78;;
43337;SDS011;28933;52.492;13.434;2023-04-05T04:50:38;5.47;;;3.28;;
43337;SDS011;28933;52.492;13.434;2023-04-05T04:53:04;6.45;;;3.47;;
43337;SDS011;28933;52.492;13.434;2023-04-05T04:55:30;5.32;;;3.53;;
43337;SDS011;28933;52.492;13.434;2023-04-05T04:57:57;5.35;;;3.17;;
43337;SDS011;28933;52.492;13.434;2023-04-05T05:00:23;5.28;;;3.17;;
43337;SDS011;28933;52.492;13.434;2023-04-05T05:02:52;5.93;;;3.20;;
43337;SDS011;28933;52.492;13.434;2023-04-05T05:05:20;5.18;;;2.63;;
43337;SDS011;28933;52.492;13.434;2023-04-05T05:07:48;5.60;;;2.90;;
43337;SDS011;28933;52.492;13.434;2023-04-05T05:10:14;6.88;;;3.08;;
43337;SDS011;28933;52.492;13.434;2023-04-05T05:12:40;7.18;;;3.22;;
43337;SDS011;28933;52.492;13.434;2023-04-05T05:15:06;4.70;;;2.65;;
43337;SDS011;28933;52.492;13.434;2023-04-05T05:17:33;4.97;;;2.90;;
43337;SDS011;28933;52.492;13.434;2023-04-05T05:19:59;7.68;;;3.38;;
43337;SDS011;28933;52.492;13.434;2023-04-05T05:22:25;6.97;;;3.25;;
43337;SDS011;28933;52.492;13.434;2023-04-05T05:24:51;4.93;;;3.17;;
43337;SDS011;28933;52.492;13.434;2023-04-05T05:27:17;6.10;;;3.35;;
43337;SDS011;28933;52.492;13.434;2023-04-05T05:29:43;4.28;;;2.88;;
43337;SDS011;28933;52.492;13.434;2023-04-05T05:32:09;6.35;;;3.00;;
43337;SDS011;28933;52.492;13.434;2023-04-05T05:34:39;5.25;;;2.90;;
43337;SDS011;28933;52.492;13.434;2023-04-05T05:37:05;6.70;;;3.47;;
43337;SDS011;28933;52.492;13.434;2023-04-05T05:39:33;6.28;;;3.35;;
43337;SDS011;28933;52.492;13.434;2023-04-05T05:41:59;6.55;;;2.95;;
43337;SDS011;28933;52.492;13.434;2023-04-05T05:44:25;6.35;;;3.60;;
43337;SDS011;28933;52.492;13.434;2023-04-05T05:46:50;5.90;;;3.10;;
43337;SDS011;28933;52.492;13.434;2023-04-05T05:49:16;4.90;;;2.80;;
43337;SDS011;28933;52.492;13.434;2023-04-05T05:51:41;6.43;;;3.00;;
43337;SDS011;28933;52.492;13.434;2023-04-05T05:54:07;7.75;;;2.90;;
43337;SDS011;28933;52.492;13.434;2023-04-05T05:56:32;6.50;;;3.38;;
43337;SDS011;28933;52.492;13.434;2023-04-05T05:58:58;5.25;;;3.22;;
43337;SDS011;28933;52.492;13.434;2023-04-05T06:01:25;7.07;;;3.63;;
43337;SDS011;28933;52.492;13.434;2023-04-05T06:03:52;7.03;;;3.88;;
43337;SDS011;28933;52.492;13.434;2023-04-05T06:06:18;8.25;;;3.78;;
43337;SDS011;28933;52.492;13.434;2023-04-05T06:08:44;9.68;;;4.55;;
43337;SDS011;28933;52.492;13.434;2023-04-05T06:11:20;6.75;;;3.70;;
43337;SDS011;28933;52.492;13.434;2023-04-05T06:13:48;9.90;;;3.35;;
43337;SDS011;28933;52.492;13.434;2023-04-05T06:16:14;7.53;;;4.03;;
43337;SDS011;28933;52.492;13.434;2023-04-05T06:18:40;8.30;;;3.63;;
43337;SDS011;28933;52.492;13.434;2023-04-05T06:21:05;7.28;;;4.32;;
43337;SDS011;28933;52.492;13.434;2023-04-05T06:23:31;6.78;;;4.13;;
43337;SDS011;28933;52.492;13.434;2023-04-05T06:25:57;9.55;;;3.97;;
43337;SDS011;28933;52.492;13.434;2023-04-05T06:28:23;8.55;;;3.60;;
43337;SDS011;28933;52.492;13.434;2023-04-05T06:30:49;8.50;;;3.45;;
43337;SDS011;28933;52.492;13.434;2023-04-05T06:33:14;11.88;;;4.25;;
43337;SDS011;28933;52.492;13.434;2023-04-05T06:35:40;7.80;;;3.72;;
43337;SDS011;28933;52.492;13.434;2023-04-05T06:38:06;9.65;;;4.82;;
43337;SDS011;28933;52.492;13.434;2023-04-05T06:40:32;6.63;;;3.60;;
43337;SDS011;28933;52.492;13.434;2023-04-05T06:42:57;7.15;;;3.80;;
43337;SDS011;28933;52.492;13.434;2023-04-05T06:45:23;7.13;;;4.32;;
43337;SDS011;28933;52.492;13.434;2023-04-05T06:47:48;9.80;;;4.60;;
43337;SDS011;28933;52.492;13.434;2023-04-05T06:50:14;10.55;;;4.60;;
43337;SDS011;28933;52.492;13.434;2023-04-05T06:52:40;6.75;;;3.80;;
43337;SDS011;28933;52.492;13.434;2023-04-05T06:55:05;7.35;;;3.85;;
43337;SDS011;28933;52.492;13.434;2023-04-05T06:57:34;8.57;;;4.15;;
43337;SDS011;28933;52.492;13.434;2023-04-05T07:00:00;7.50;;;4.30;;
43337;SDS011;28933;52.492;13.434;2023-04-05T07:02:25;6.38;;;4.20;;
43337;SDS011;28933;52.492;13.434;2023-04-05T07:04:51;7.05;;;4.20;;
43337;SDS011;28933;52.492;13.434;2023-04-05T07:07:17;8.18;;;4.28;;
43337;SDS011;28933;52.492;13.434;2023-04-05T07:09:42;6.72;;;4.40;;
43337;SDS011;28933;52.492;13.434;2023-04-05T07:12:08;9.95;;;4.50;;
43337;SDS011;28933;52.492;13.434;2023-04-05T07:14:37;8.55;;;3.97;;
43337;SDS011;28933;52.492;13.434;2023-04-05T07:17:03;10.00;;;4.57;;
43337;SDS011;28933;52.492;13.434;2023-04-05T07:19:32;7.05;;;4.28;;
43337;SDS011;28933;52.492;13.434;2023-04-05T07:21:58;9.05;;;4.43;;
43337;SDS011;28933;52.492;13.434;2023-04-05T07:24:24;7.90;;;4.88;;
43337;SDS011;28933;52.492;13.434;2023-04-05T07:26:50;10.88;;;5.18;;
43337;SDS011;28933;52.492;13.434;2023-04-05T07:29:15;13.60;;;5.80;;
43337;SDS011;28933;52.492;13.434;2023-04-05T07:31:41;11.05;;;5.35;;
43337;SDS011;28933;52.492;13.434;2023-04-05T07:34:07;10.43;;;5.30;;
43337;SDS011;28933;52.492;13.434;2023-04-05T07:36:33;8.48;;;5.20;;
43337;SDS011;28933;52.492;13.434;2023-04-05T07:38:59;7.75;;;4.72;;
43337;SDS011;28933;52.492;13.434;2023-04-05T07:41:28;8.23;;;4.53;;
43337;SDS011;28933;52.492;13.434;2023-04-05T07:43:56;6.80;;;4.40;;
43337;SDS011;28933;52.492;13.434;2023-04-05T07:46:22;6.78;;;4.15;;
43337;SDS011;28933;52.492;13.434;2023-04-05T07:48:48;10.20;;;5.35;;
43337;SDS011;28933;52.492;13.434;2023-04-05T07:51:14;13.23;;;5.72;;
43337;SDS011;28933;52.492;13.434;2023-04-05T07:53:40;6.68;;;4.03;;
43337;SDS011;28933;52.492;13.434;2023-04-05T07:56:07;10.05;;;4.60;;
43337;SDS011;28933;52.492;13.434;2023-04-05T07:58:34;7.43;;;4.10;;
43337;SDS011;28933;52.492;13.434;2023-04-05T08:01:03;6.63;;;4.55;;
43337;SDS011;28933;52.492;13.434;2023-04-05T08:03:30;8.02;;;4.45;;
43337;SDS011;28933;52.492;13.434;2023-04-05T08:05:56;6.45;;;4.32;;
43337;SDS011;28933;52.492;13.434;2023-04-05T08:08:25;7.72;;;4.20;;
43337;SDS011;28933;52.492;13.434;2023-04-05T08:10:51;5.72;;;3.70;;
43337;SDS011;28933;52.492;13.434;2023-04-05T08:13:16;7.43;;;4.63;;
43337;SDS011;28933;52.492;13.434;2023-04-05T08:15:42;10.75;;;4.70;;
43337;SDS011;28933;52.492;13.434;2023-04-05T08:18:08;8.00;;;4.40;;
43337;SDS011;28933;52.492;13.434;2023-04-05T08:20:33;7.35;;;4.60;;
43337;SDS011;28933;52.492;13.434;2023-04-05T08:23:03;7.68;;;4.22;;
43337;SDS011;28933;52.492;13.434;2023-04-05T08:25:29;7.60;;;3.50;;
43337;SDS011;28933;52.492;13.434;2023-04-05T08:27:55;5.72;;;3.90;;
43337;SDS011;28933;52.492;13.434;2023-04-05T08:30:21;6.00;;;3.53;;
43337;SDS011;28933;52.492;13.434;2023-04-05T08:32:47;6.65;;;4.15;;
43337;SDS011;28933;52.492;13.434;2023-04-05T08:35:13;6.93;;;4.10;;
43337;SDS011;28933;52.492;13.434;2023-04-05T08:37:39;12.13;;;4.88;;
43337;SDS011;28933;52.492;13.434;2023-04-05T08:40:05;7.10;;;4.07;;
43337;SDS011;28933;52.492;13.434;2023-04-05T08:42:36;6.05;;;3.40;;
43337;SDS011;28933;52.492;13.434;2023-04-05T08:45:10;6.07;;;3.60;;
43337;SDS011;28933;52.492;13.434;2023-04-05T08:47:41;5.82;;;3.45;;
43337;SDS011;28933;52.492;13.434;2023-04-05T08:50:08;6.50;;;3.95;;
43337;SDS011;28933;52.492;13.434;2023-04-05T08:52:34;7.40;;;4.10;;
43337;SDS011;28933;52.492;13.434;2023-04-05T08:55:04;7.40;;;3.17;;
43337;SDS011;28933;52.492;13.434;2023-04-05T08:57:30;8.13;;;3.90;;
43337;SDS011;28933;52.492;13.434;2023-04-05T08:59:58;5.63;;;3.53;;
43337;SDS011;28933;52.492;13.434;2023-04-05T09:02:27;5.57;;;3.78;;
43337;SDS011;28933;52.492;13.434;2023-04-05T09:04:53;8.15;;;3.72;;
43337;SDS011;28933;52.492;13.434;2023-04-05T09:07:20;7.05;;;3.63;;
43337;SDS011;28933;52.492;13.434;2023-04-05T09:09:47;6.63;;;3.80;;
43337;SDS011;28933;52.492;13.434;2023-04-05T09:12:16;10.27;;;4.35;;
43337;SDS011;28933;52.492;13.434;2023-04-05T09:14:45;6.60;;;3.45;;
43337;SDS011;28933;52.492;13.434;2023-04-05T09:17:13;7.68;;;3.70;;
43337;SDS011;28933;52.492;13.434;2023-04-05T09:19:41;8.35;;;4.07;;
43337;SDS011;28933;52.492;13.434;2023-04-05T09:22:07;5.82;;;3.80;;
43337;SDS011;28933;52.492;13.434;2023-04-05T09:27:10;7.40;;;3.90;;
43337;SDS011;28933;52.492;13.434;2023-04-05T09:29:38;6.32;;;3.65;;
43337;SDS011;28933;52.492;13.434;2023-04-05T09:32:06;17.83;;;5.63;;
43337;SDS011;28933;52.492;13.434;2023-04-05T09:34:33;8.85;;;3.50;;
43337;SDS011;28933;52.492;13.434;2023-04-05T09:37:02;5.72;;;3.50;;
43337;SDS011;28933;52.492;13.434;2023-04-05T09:39:40;4.68;;;3.00;;
43337;SDS011;28933;52.492;13.434;2023-04-05T09:42:13;9.73;;;4.35;;
43337;SDS011;28933;52.492;13.434;2023-04-05T09:47:20;6.65;;;3.33;;
43337;SDS011;28933;52.492;13.434;2023-04-05T09:49:47;7.25;;;3.92;;
43337;SDS011;28933;52.492;13.434;2023-04-05T09:52:20;6.25;;;3.55;;
43337;SDS011;28933;52.492;13.434;2023-04-05T09:54:52;7.75;;;3.88;;
43337;SDS011;28933;52.492;13.434;2023-04-05T09:57:21;5.55;;;3.30;;
43337;SDS011;28933;52.492;13.434;2023-04-05T09:59:47;7.68;;;3.85;;
43337;SDS011;28933;52.492;13.434;2023-04-05T10:02:14;5.20;;;3.15;;
43337;SDS011;28933;52.492;13.434;2023-04-05T10:04:41;4.93;;;2.80;;
43337;SDS011;28933;52.492;13.434;2023-04-05T10:07:08;5.30;;;3.72;;
43337;SDS011;28933;52.492;13.434;2023-04-05T10:09:35;8.32;;;3.78;;
43337;SDS011;28933;52.492;13.434;2023-04-05T10:12:01;9.90;;;3.85;;
43337;SDS011;28933;52.492;13.434;2023-04-05T10:14:27;6.07;;;3.28;;
43337;SDS011;28933;52.492;13.434;2023-04-05T10:20:26;5.65;;;3.80;;
43337;SDS011;28933;52.492;13.434;2023-04-05T10:22:58;7.88;;;3.20;;
43337;SDS011;28933;52.492;13.434;2023-04-05T10:30:58;6.55;;;3.30;;
43337;SDS011;28933;52.492;13.434;2023-04-05T10:33:32;6.78;;;3.17;;
43337;SDS011;28933;52.492;13.434;2023-04-05T10:38:59;5.95;;;3.42;;
43337;SDS011;28933;52.492;13.434;2023-04-05T10:41:34;4.53;;;3.03;;
43337;SDS011;28933;52.492;13.434;2023-04-05T10:44:04;9.23;;;3.23;;
43337;SDS011;28933;52.492;13.434;2023-04-05T10:46:33;5.28;;;3.08;;
43337;SDS011;28933;52.492;13.434;2023-04-05T10:49:21;6.47;;;4.00;;
43337;SDS011;28933;52.492;13.434;2023-04-05T10:51:47;5.88;;;3.13;;
43337;SDS011;28933;52.492;13.434;2023-04-05T10:54:14;8.27;;;3.53;;
43337;SDS011;28933;52.492;13.434;2023-04-05T10:56:43;5.35;;;3.17;;
43337;SDS011;28933;52.492;13.434;2023-04-05T10:59:10;6.95;;;3.42;;
43337;SDS011;28933;52.492;13.434;2023-04-05T11:01:37;7.68;;;3.65;;
43337;SDS011;28933;52.492;13.434;2023-04-05T11:06:37;5.90;;;3.67;;
43337;SDS011;28933;52.492;13.434;2023-04-05T11:09:11;6.22;;;3.33;;
43337;SDS011;28933;52.492;13.434;2023-04-05T11:11:44;4.60;;;2.95;;
43337;SDS011;28933;52.492;13.434;2023-04-05T11:14:17;4.20;;;3.00;;
43337;SDS011;28933;52.492;13.434;2023-04-05T11:16:45;6.00;;;3.33;;
43337;SDS011;28933;52.492;13.434;2023-04-05T11:19:13;5.45;;;3.33;;
43337;SDS011;28933;52.492;13.434;2023-04-05T11:21:40;5.78;;;3.33;;
43337;SDS011;28933;52.492;13.434;2023-04-05T11:24:08;6.07;;;3.35;;
43337;SDS011;28933;52.492;13.434;2023-04-05T11:29:13;4.55;;;3.17;;
43337;SDS011;28933;52.492;13.434;2023-04-05T11:31:58;6.10;;;3.60;;
43337;SDS011;28933;52.492;13.434;2023-04-05T11:34:31;4.72;;;2.92;;
43337;SDS011;28933;52.492;13.434;2023-04-05T11:37:00;5.00;;;3.50;;
43337;SDS011;28933;52.492;13.434;2023-04-05T11:39:26;6.03;;;3.33;;
43337;SDS011;28933;52.492;13.434;2023-04-05T11:42:05;5.63;;;3.17;;
43337;SDS011;28933;52.492;13.434;2023-04-05T11:44:43;4.85;;;3.25;;
43337;SDS011;28933;52.492;13.434;2023-04-05T11:47:10;5.15;;;3.20;;
43337;SDS011;28933;52.492;13.434;2023-04-05T11:49:37;4.95;;;3.45;;
43337;SDS011;28933;52.492;13.434;2023-04-05T11:52:14;4.22;;;2.75;;
43337;SDS011;28933;52.492;13.434;2023-04-05T11:54:41;4.55;;;2.90;;
43337;SDS011;28933;52.492;13.434;2023-04-05T11:57:19;4.90;;;3.00;;
43337;SDS011;28933;52.492;13.434;2023-04-05T11:59:48;4.63;;;3.45;;
43337;SDS011;28933;52.492;13.434;2023-04-05T12:02:16;5.38;;;2.83;;
43337;SDS011;28933;52.492;13.434;2023-04-05T12:04:42;4.35;;;3.08;;
43337;SDS011;28933;52.492;13.434;2023-04-05T12:07:08;6.82;;;3.38;;
43337;SDS011;28933;52.492;13.434;2023-04-05T12:09:34;5.10;;;3.17;;
43337;SDS011;28933;52.492;13.434;2023-04-05T12:12:00;4.93;;;3.20;;
43337;SDS011;28933;52.492;13.434;2023-04-05T12:14:26;7.22;;;3.50;;
43337;SDS011;28933;52.492;13.434;2023-04-05T12:16:52;4.70;;;3.10;;
43337;SDS011;28933;52.492;13.434;2023-04-05T12:19:17;6.20;;;3.15;;
43337;SDS011;28933;52.492;13.434;2023-04-05T12:21:46;4.85;;;2.80;;
43337;SDS011;28933;52.492;13.434;2023-04-05T12:24:12;8.93;;;3.15;;
43337;SDS011;28933;52.492;13.434;2023-04-05T12:26:38;4.85;;;2.90;;
43337;SDS011;28933;52.492;13.434;2023-04-05T12:29:04;4.40;;;3.00;;
43337;SDS011;28933;52.492;13.434;2023-04-05T12:31:42;9.85;;;3.55;;
43337;SDS011;28933;52.492;13.434;2023-04-05T12:34:10;5.25;;;2.72;;
43337;SDS011;28933;52.492;13.434;2023-04-05T12:36:37;4.43;;;2.80;;
43337;SDS011;28933;52.492;13.434;2023-04-05T12:39:08;4.90;;;3.03;;
43337;SDS011;28933;52.492;13.434;2023-04-05T12:41:34;5.97;;;3.50;;
43337;SDS011;28933;52.492;13.434;2023-04-05T12:44:04;4.75;;;3.00;;
43337;SDS011;28933;52.492;13.434;2023-04-05T12:46:42;6.25;;;2.97;;
43337;SDS011;28933;52.492;13.434;2023-04-05T12:49:14;4.60;;;3.00;;
43337;SDS011;28933;52.492;13.434;2023-04-05T12:51:41;7.32;;;2.70;;
43337;SDS011;28933;52.492;13.434;2023-04-05T12:54:10;4.75;;;3.00;;
43337;SDS011;28933;52.492;13.434;2023-04-05T12:56:37;4.57;;;3.28;;
43337;SDS011;28933;52.492;13.434;2023-04-05T12:59:03;5.10;;;2.55;;
43337;SDS011;28933;52.492;13.434;2023-04-05T13:01:31;3.72;;;2.50;;
43337;SDS011;28933;52.492;13.434;2023-04-05T13:03:58;5.03;;;3.00;;
43337;SDS011;28933;52.492;13.434;2023-04-05T13:06:29;5.90;;;3.55;;
43337;SDS011;28933;52.492;13.434;2023-04-05T13:08:55;5.55;;;3.33;;
43337;SDS011;28933;52.492;13.434;2023-04-05T13:11:21;4.22;;;2.55;;
43337;SDS011;28933;52.492;13.434;2023-04-05T13:13:48;5.90;;;3.13;;
43337;SDS011;28933;52.492;13.434;2023-04-05T13:16:14;6.50;;;3.13;;
43337;SDS011;28933;52.492;13.434;2023-04-05T13:18:39;4.97;;;3.30;;
43337;SDS011;28933;52.492;13.434;2023-04-05T13:21:05;4.00;;;2.50;;
43337;SDS011;28933;52.492;13.434;2023-04-05T13:23:33;5.55;;;3.00;;
43337;SDS011;28933;52.492;13.434;2023-04-05T13:25:59;4.82;;;3.05;;
43337;SDS011;28933;52.492;13.434;2023-04-05T13:28:25;5.95;;;3.38;;
43337;SDS011;28933;52.492;13.434;2023-04-05T13:30:52;6.00;;;2.75;;
43337;SDS011;28933;52.492;13.434;2023-04-05T13:33:18;3.90;;;2.80;;
43337;SDS011;28933;52.492;13.434;2023-04-05T13:35:44;4.63;;;2.90;;
43337;SDS011;28933;52.492;13.434;2023-04-05T13:38:10;5.93;;;3.30;;
43337;SDS011;28933;52.492;13.434;2023-04-05T13:40:36;6.15;;;3.15;;
43337;SDS011;28933;52.492;13.434;2023-04-05T13:43:01;6.30;;;3.55;;
43337;SDS011;28933;52.492;13.434;2023-04-05T13:45:27;4.78;;;3.20;;
43337;SDS011;28933;52.492;13.434;2023-04-05T13:47:54;6.57;;;3.08;;
43337;SDS011;28933;52.492;13.434;2023-04-05T13:50:19;5.95;;;2.70;;
43337;SDS011;28933;52.492;13.434;2023-04-05T13:52:45;6.35;;;3.05;;
43337;SDS011;28933;52.492;13.434;2023-04-05T13:55:11;5.90;;;2.85;;
43337;SDS011;28933;52.492;13.434;2023-04-05T13:57:37;4.95;;;2.70;;
43337;SDS011;28933;52.492;13.434;2023-04-05T14:00:02;4.68;;;3.20;;
43337;SDS011;28933;52.492;13.434;2023-04-05T14:02:29;3.72;;;2.40;;
43337;SDS011;28933;52.492;13.434;2023-04-05T14:04:54;5.13;;;2.97;;
43337;SDS011;28933;52.492;13.434;2023-04-05T14:07:20;5.82;;;3.08;;
43337;SDS011;28933;52.492;13.434;2023-04-05T14:09:47;5.00;;;3.10;;
43337;SDS011;28933;52.492;13.434;2023-04-05T14:12:12;4.13;;;2.92;;
43337;SDS011;28933;52.492;13.434;2023-04-05T14:14:38;4.20;;;3.42;;
43337;SDS011;28933;52.492;13.434;2023-04-05T14:17:04;4.90;;;2.88;;
43337;SDS011;28933;52.492;13.434;2023-04-05T14:19:31;6.35;;;3.13;;
43337;SDS011;28933;52.492;13.434;2023-04-05T14:21:57;6.47;;;3.10;;
43337;SDS011;28933;52.492;13.434;2023-04-05T14:24:22;5.07;;;2.72;;
43337;SDS011;28933;52.492;13.434;2023-04-05T14:26:48;5.40;;;3.30;;
43337;SDS011;28933;52.492;13.434;2023-04-05T14:29:15;4.97;;;2.90;;
43337;SDS011;28933;52.492;13.434;2023-04-05T14:31:41;5.25;;;3.30;;
43337;SDS011;28933;52.492;13.434;2023-04-05T14:34:07;4.72;;;3.03;;
43337;SDS011;28933;52.492;13.434;2023-04-05T14:36:32;9.50;;;3.60;;
43337;SDS011;28933;52.492;13.434;2023-04-05T14:38:58;3.85;;;2.60;;
43337;SDS011;28933;52.492;13.434;2023-04-05T14:41:24;4.22;;;2.78;;
43337;SDS011;28933;52.492;13.434;2023-04-05T14:43:52;6.10;;;3.15;;
43337;SDS011;28933;52.492;13.434;2023-04-05T14:46:18;4.20;;;3.00;;
43337;SDS011;28933;52.492;13.434;2023-04-05T14:48:43;4.93;;;3.00;;
43337;SDS011;28933;52.492;13.434;2023-04-05T14:51:10;6.43;;;3.10;;
43337;SDS011;28933;52.492;13.434;2023-04-05T14:53:35;4.88;;;2.30;;
43337;SDS011;28933;52.492;13.434;2023-04-05T14:56:02;4.32;;;2.50;;
43337;SDS011;28933;52.492;13.434;2023-04-05T14:58:28;4.65;;;2.45;;
43337;SDS011;28933;52.492;13.434;2023-04-05T15:00:54;4.00;;;2.13;;
43337;SDS011;28933;52.492;13.434;2023-04-05T15:03:20;4.50;;;2.40;;
43337;SDS011;28933;52.492;13.434;2023-04-05T15:05:46;5.32;;;2.50;;